Time;durP1;ratioP1;P1;durP2;ratioP2;P2;SDS_P1;SDS_P2;PMS_P1;PMS_P2;Temp;Humidity;BMP_temperature;BMP_pressure;BME280_temperature;BME280_humidity;BME280_pressure;Samples;Min_cycle;Max_cycle;Signal;HPM_P1;HPM_P2
2022/03/23 00:00:52;;;;;;;25.67;18.60;;;;;;;;;;5085315;28;20206;-74
2022/03/23 00:03:20;;;;;;;22.80;17.47;;;;;;;;;;5076052;28;20210;-74
2022/03/23 00:05:49;;;;;;;25.13;17.93;;;;;;;;;;5075982;28;20300;-74
2022/03/23 00:08:17;;;;;;;23.57;16.80;;;;;;;;;;5075872;28;20214;-74
2022/03/23 00:10:46;;;;;;;24.47;18.30;;;;;;;;;;5075855;28;20203;-74
2022/03/23 00:13:14;;;;;;;24.17;17.57;;;;;;;;;;5078541;28;20250;-74
2022/03/23 00:15:44;;;;;;;22.40;16.37;;;;;;;;;;5095981;28;20245;-74
2022/03/23 00:18:13;;;;;;;24.37;17.90;;;;;;;;;;5096124;28;20283;-75
2022/03/23 00:20:42;;;;;;;25.17;18.67;;;;;;;;;;5085069;28;20202;-74
2022/03/23 00:23:11;;;;;;;27.23;19.57;;;;;;;;;;4731533;28;9999715;-75
2022/03/23 00:25:39;;;;;;;24.33;18.90;;;;;;;;;;5092981;28;20569;-74
2022/03/23 00:28:07;;;;;;;23.00;17.03;;;;;;;;;;5092927;28;20236;-74
2022/03/23 00:30:36;;;;;;;22.07;16.47;;;;;;;;;;5084167;28;20214;-74
2022/03/23 00:33:25;;;;;;;22.97;17.70;;;;;;;;;;5072762;28;20311;-74
2022/03/23 00:35:55;;;;;;;26.17;17.57;;;;;;;;;;5072115;28;20245;-74
2022/03/23 00:38:24;;;;;;;21.70;16.63;;;;;;;;;;5072540;28;20238;-74
2022/03/23 00:40:53;;;;;;;21.70;15.87;;;;;;;;;;5072955;28;20210;-74
2022/03/23 00:43:21;;;;;;;23.47;17.10;;;;;;;;;;5072391;28;20256;-74
2022/03/23 00:45:49;;;;;;;24.83;18.50;;;;;;;;;;5079547;28;20230;-74
2022/03/23 00:48:18;;;;;;;26.17;18.63;;;;;;;;;;5092323;28;20217;-74
2022/03/23 00:50:48;;;;;;;23.90;17.83;;;;;;;;;;5091630;28;20212;-74
2022/03/23 00:53:17;;;;;;;23.63;17.57;;;;;;;;;;5092096;28;20275;-74
2022/03/23 00:55:46;;;;;;;25.50;19.70;;;;;;;;;;5093601;28;20680;-74
2022/03/23 00:58:14;;;;;;;29.77;20.63;;;;;;;;;;5092976;28;20229;-74
2022/03/23 01:00:45;;;;;;;27.30;20.53;;;;;;;;;;5082035;28;20227;-74
2022/03/23 01:03:14;;;;;;;24.90;19.77;;;;;;;;;;5071956;28;20595;-74
2022/03/23 01:05:43;;;;;;;28.23;20.27;;;;;;;;;;5079257;28;20225;-74
2022/03/23 01:08:13;;;;;;;27.10;20.63;;;;;;;;;;5095043;28;20225;-74
2022/03/23 01:10:42;;;;;;;29.30;19.77;;;;;;;;;;5095054;28;20201;-74
2022/03/23 01:13:10;;;;;;;31.07;21.50;;;;;;;;;;5091655;28;20206;-74
2022/03/23 01:15:39;;;;;;;30.07;20.27;;;;;;;;;;5082330;28;20198;-74
2022/03/23 01:18:07;;;;;;;28.90;20.00;;;;;;;;;;5094636;28;20626;-74
2022/03/23 01:20:36;;;;;;;27.30;19.57;;;;;;;;;;5086804;28;20561;-74
2022/03/23 01:23:05;;;;;;;27.20;18.83;;;;;;;;;;5086753;28;20201;-74
2022/03/23 01:25:34;;;;;;;24.67;18.33;;;;;;;;;;5094659;28;20295;-74
2022/03/23 01:28:04;;;;;;;28.47;17.90;;;;;;;;;;5075073;28;20229;-74
2022/03/23 01:30:32;;;;;;;24.57;18.63;;;;;;;;;;5078458;28;20254;-74
2022/03/23 01:33:01;;;;;;;28.33;20.30;;;;;;;;;;5074453;28;20293;-74
2022/03/23 01:35:29;;;;;;;29.07;18.53;;;;;;;;;;5074390;28;20280;-74
2022/03/23 01:37:58;;;;;;;30.40;20.10;;;;;;;;;;5074039;28;20230;-74
2022/03/23 01:40:26;;;;;;;25.70;18.07;;;;;;;;;;5079889;28;20202;-74
2022/03/23 01:42:56;;;;;;;23.90;18.23;;;;;;;;;;5076135;28;20558;-74
2022/03/23 01:45:24;;;;;;;24.20;16.80;;;;;;;;;;5078935;28;20266;-74
2022/03/23 01:47:53;;;;;;;27.93;20.20;;;;;;;;;;5076733;28;20226;-74
2022/03/23 01:50:21;;;;;;;29.33;18.23;;;;;;;;;;5074002;28;20206;-74
2022/03/23 01:52:50;;;;;;;22.73;16.80;;;;;;;;;;5073757;28;20608;-74
2022/03/23 01:55:19;;;;;;;23.30;16.77;;;;;;;;;;5076625;28;20881;-74
2022/03/23 01:57:48;;;;;;;25.33;17.43;;;;;;;;;;5076402;28;20235;-73
2022/03/23 02:00:18;;;;;;;27.63;18.93;;;;;;;;;;5074226;28;20210;-74
2022/03/23 02:02:47;;;;;;;25.67;18.07;;;;;;;;;;5073411;28;20256;-74
2022/03/23 02:05:16;;;;;;;25.83;17.43;;;;;;;;;;5073252;28;20252;-74
2022/03/23 02:07:45;;;;;;;25.40;17.43;;;;;;;;;;5072644;28;20234;-74
2022/03/23 02:10:13;;;;;;;21.80;16.93;;;;;;;;;;5081736;28;20202;-74
2022/03/23 02:12:41;;;;;;;27.93;18.30;;;;;;;;;;5081378;28;20279;-74
2022/03/23 02:15:14;;;;;;;24.30;17.87;;;;;;;;;;5073650;28;20716;-74
2022/03/23 02:17:44;;;;;;;25.60;18.03;;;;;;;;;;5073466;28;20224;-74
2022/03/23 02:20:13;;;;;;;25.53;16.77;;;;;;;;;;5084894;28;20759;-74
2022/03/23 02:22:43;;;;;;;21.50;15.57;;;;;;;;;;5080304;28;20251;-74
2022/03/23 02:25:11;;;;;;;22.10;16.53;;;;;;;;;;5073641;28;20294;-74
2022/03/23 02:27:40;;;;;;;24.30;17.13;;;;;;;;;;5073261;28;20646;-74
2022/03/23 02:30:10;;;;;;;25.47;16.93;;;;;;;;;;5072749;28;20216;-74
2022/03/23 02:32:38;;;;;;;25.43;17.93;;;;;;;;;;5072580;28;20204;-74
2022/03/23 02:35:08;;;;;;;27.87;17.83;;;;;;;;;;5072443;28;20258;-74
2022/03/23 02:37:36;;;;;;;27.37;18.10;;;;;;;;;;5073044;28;20277;-74
2022/03/23 02:40:08;;;;;;;25.53;18.13;;;;;;;;;;5080455;28;20208;-73
2022/03/23 02:42:37;;;;;;;25.93;18.57;;;;;;;;;;5093540;28;20574;-74
2022/03/23 02:45:06;;;;;;;28.17;19.37;;;;;;;;;;5087436;28;20213;-74
2022/03/23 02:47:34;;;;;;;23.90;17.17;;;;;;;;;;5073163;28;20274;-74
2022/03/23 02:50:03;;;;;;;25.47;17.30;;;;;;;;;;5075075;28;20208;-74
2022/03/23 02:52:31;;;;;;;25.77;18.43;;;;;;;;;;5073157;28;20204;-74
2022/03/23 03:03:53;;;;;;;25.47;17.27;;;;;;;;;;4993591;28;20296;-74
2022/03/23 03:06:22;;;;;;;23.73;16.20;;;;;;;;;;5065903;28;20230;-74
2022/03/23 03:08:51;;;;;;;24.13;16.83;;;;;;;;;;5072525;28;20206;-74
2022/03/23 03:11:20;;;;;;;24.33;17.47;;;;;;;;;;5078547;28;20199;-73
2022/03/23 03:13:51;;;;;;;23.17;16.80;;;;;;;;;;5087365;28;20705;-74
2022/03/23 03:16:21;;;;;;;27.30;18.33;;;;;;;;;;5076460;28;20221;-73
2022/03/23 03:18:49;;;;;;;24.93;18.60;;;;;;;;;;5087090;28;20289;-74
2022/03/23 03:21:18;;;;;;;24.30;18.20;;;;;;;;;;5080303;28;20206;-74
2022/03/23 03:23:47;;;;;;;26.23;17.83;;;;;;;;;;5076589;28;20216;-74
2022/03/23 03:26:16;;;;;;;22.93;17.33;;;;;;;;;;5088601;28;20209;-73
2022/03/23 03:28:45;;;;;;;26.63;18.13;;;;;;;;;;5090303;28;20199;-73
2022/03/23 03:31:15;;;;;;;24.67;17.50;;;;;;;;;;5087111;28;20256;-74
2022/03/23 03:33:45;;;;;;;28.37;18.33;;;;;;;;;;5075834;28;20204;-74
2022/03/23 03:36:15;;;;;;;24.83;18.30;;;;;;;;;;5088498;28;20206;-73
2022/03/23 03:38:44;;;;;;;26.60;17.73;;;;;;;;;;5096814;28;20291;-73
2022/03/23 03:41:12;;;;;;;29.60;19.33;;;;;;;;;;5081633;28;20265;-74
2022/03/23 03:43:40;;;;;;;24.90;18.67;;;;;;;;;;5076399;28;20203;-74
2022/03/23 03:46:10;;;;;;;25.10;18.13;;;;;;;;;;5086443;28;21103;-74
2022/03/23 03:48:41;;;;;;;24.07;17.07;;;;;;;;;;5095421;28;20317;-74
2022/03/23 03:51:10;;;;;;;25.27;17.97;;;;;;;;;;5081967;28;20737;-74
2022/03/23 03:53:38;;;;;;;25.67;18.07;;;;;;;;;;5075961;28;20754;-74
2022/03/23 03:56:08;;;;;;;25.53;16.87;;;;;;;;;;5076023;28;20206;-73
2022/03/23 03:58:37;;;;;;;24.67;18.07;;;;;;;;;;5075497;28;20296;-73
2022/03/23 04:01:06;;;;;;;23.87;18.17;;;;;;;;;;5076009;28;20254;-74
2022/03/23 04:03:35;;;;;;;23.47;17.27;;;;;;;;;;5075598;28;20292;-73
2022/03/23 04:06:05;;;;;;;25.67;18.77;;;;;;;;;;5075812;28;20205;-73
2022/03/23 04:08:35;;;;;;;24.30;16.70;;;;;;;;;;5075285;28;20233;-73
2022/03/23 04:11:04;;;;;;;27.00;17.77;;;;;;;;;;5075797;28;20203;-73
2022/03/23 04:13:33;;;;;;;23.53;17.27;;;;;;;;;;5076121;28;20558;-73
2022/03/23 04:16:01;;;;;;;25.70;16.57;;;;;;;;;;5082774;28;20575;-73
2022/03/23 04:18:30;;;;;;;26.57;18.00;;;;;;;;;;5076367;28;20195;-73
2022/03/23 04:20:59;;;;;;;31.17;20.23;;;;;;;;;;5075966;28;20240;-73
2022/03/23 04:23:34;;;;;;;26.60;18.93;;;;;;;;;;5075419;28;20294;-74
2022/03/23 04:26:02;;;;;;;30.33;20.03;;;;;;;;;;5077018;28;20650;-73
2022/03/23 04:28:31;;;;;;;27.10;19.10;;;;;;;;;;5078404;28;20219;-73
2022/03/23 04:31:01;;;;;;;26.20;18.30;;;;;;;;;;5084490;28;20214;-73
2022/03/23 04:33:29;;;;;;;25.67;17.80;;;;;;;;;;5095620;28;20263;-73
2022/03/23 04:35:57;;;;;;;23.77;17.63;;;;;;;;;;5090878;28;20726;-73
2022/03/23 04:38:26;;;;;;;25.13;17.37;;;;;;;;;;5083907;28;20209;-73
2022/03/23 04:40:57;;;;;;;23.93;16.87;;;;;;;;;;5078825;28;20263;-73
2022/03/23 04:43:26;;;;;;;28.17;18.23;;;;;;;;;;5075257;28;20203;-73
2022/03/23 04:45:54;;;;;;;29.33;18.57;;;;;;;;;;5086085;28;20215;-73
2022/03/23 04:48:23;;;;;;;25.80;17.53;;;;;;;;;;5095447;28;20267;-73
2022/03/23 04:50:52;;;;;;;27.77;17.93;;;;;;;;;;5086590;28;20201;-73
2022/03/23 04:53:21;;;;;;;30.60;18.10;;;;;;;;;;5095045;28;20198;-73
2022/03/23 04:55:49;;;;;;;26.43;17.90;;;;;;;;;;5091518;28;20265;-73
2022/03/23 04:58:19;;;;;;;23.50;17.23;;;;;;;;;;5095036;28;20218;-73
2022/03/23 05:00:48;;;;;;;29.80;18.63;;;;;;;;;;5077521;28;20261;-73
2022/03/23 05:03:16;;;;;;;23.73;18.00;;;;;;;;;;5074705;28;20233;-73
2022/03/23 05:05:45;;;;;;;25.33;19.00;;;;;;;;;;5074364;28;20233;-73
2022/03/23 05:08:13;;;;;;;27.97;19.60;;;;;;;;;;5074787;28;20634;-73
2022/03/23 05:10:42;;;;;;;32.43;19.07;;;;;;;;;;5074382;28;20202;-73
2022/03/23 05:13:11;;;;;;;27.10;19.20;;;;;;;;;;5074727;28;20207;-73
2022/03/23 05:15:41;;;;;;;28.10;20.10;;;;;;;;;;5074771;28;20369;-73
2022/03/23 05:18:09;;;;;;;28.40;20.43;;;;;;;;;;5082755;28;20218;-74
2022/03/23 05:20:37;;;;;;;30.47;20.83;;;;;;;;;;5073850;28;20199;-73
2022/03/23 05:23:06;;;;;;;28.80;20.20;;;;;;;;;;5074498;28;20567;-73
2022/03/23 05:25:34;;;;;;;29.90;20.90;;;;;;;;;;5080361;28;20194;-73
2022/03/23 05:28:03;;;;;;;30.07;19.97;;;;;;;;;;5082066;28;20273;-73
2022/03/23 05:30:32;;;;;;;26.73;19.47;;;;;;;;;;5085737;28;20224;-74
2022/03/23 05:33:02;;;;;;;32.87;21.27;;;;;;;;;;5079374;28;20201;-73
2022/03/23 05:35:31;;;;;;;28.37;19.83;;;;;;;;;;5074333;28;20253;-73
2022/03/23 05:37:59;;;;;;;27.47;18.90;;;;;;;;;;5081746;28;20210;-74
2022/03/23 05:40:28;;;;;;;28.57;19.73;;;;;;;;;;5080546;28;20206;-74
2022/03/23 05:42:57;;;;;;;30.20;20.07;;;;;;;;;;5074875;28;20276;-74
2022/03/23 05:45:25;;;;;;;32.50;20.33;;;;;;;;;;5082257;28;20203;-74
2022/03/23 05:47:56;;;;;;;35.43;21.13;;;;;;;;;;5075952;28;20247;-73
2022/03/23 05:50:25;;;;;;;29.37;20.13;;;;;;;;;;5080040;28;20252;-74
2022/03/23 05:52:54;;;;;;;26.63;18.97;;;;;;;;;;5085224;28;20623;-74
2022/03/23 05:55:22;;;;;;;26.93;19.30;;;;;;;;;;5073762;28;20217;-74
2022/03/23 05:57:51;;;;;;;32.63;20.43;;;;;;;;;;5081378;28;20220;-74
2022/03/23 06:00:20;;;;;;;31.37;21.10;;;;;;;;;;5076313;28;20549;-74
2022/03/23 06:02:51;;;;;;;33.43;22.23;;;;;;;;;;5084616;28;20203;-74
2022/03/23 06:05:20;;;;;;;33.87;21.53;;;;;;;;;;5083311;28;20406;-74
2022/03/23 06:07:49;;;;;;;34.57;23.33;;;;;;;;;;5085676;28;20558;-74
2022/03/23 06:10:18;;;;;;;30.83;21.20;;;;;;;;;;5081732;28;20202;-75
2022/03/23 06:12:47;;;;;;;30.03;21.27;;;;;;;;;;5079003;28;20202;-74
2022/03/23 06:15:15;;;;;;;34.47;23.03;;;;;;;;;;5076780;28;20650;-74
2022/03/23 06:17:44;;;;;;;32.13;22.47;;;;;;;;;;5076820;28;20626;-74
2022/03/23 06:20:14;;;;;;;29.57;21.33;;;;;;;;;;5072582;28;20537;-74
2022/03/23 06:22:42;;;;;;;30.83;21.43;;;;;;;;;;5072918;28;20195;-74
2022/03/23 06:25:12;;;;;;;31.40;21.07;;;;;;;;;;5072961;28;20256;-74
2022/03/23 06:27:40;;;;;;;33.07;23.20;;;;;;;;;;5073221;28;20282;-74
2022/03/23 06:30:09;;;;;;;34.03;21.53;;;;;;;;;;5073373;28;20236;-74
2022/03/23 06:32:38;;;;;;;32.03;21.93;;;;;;;;;;5072144;28;20200;-74
2022/03/23 06:35:08;;;;;;;30.97;22.13;;;;;;;;;;5072896;28;20204;-74
2022/03/23 06:37:37;;;;;;;30.30;21.93;;;;;;;;;;5080167;28;20710;-74
2022/03/23 06:40:06;;;;;;;29.93;22.63;;;;;;;;;;5084092;28;20591;-75
2022/03/23 06:42:36;;;;;;;34.10;23.63;;;;;;;;;;5073627;28;20250;-74
2022/03/23 06:45:05;;;;;;;31.53;22.37;;;;;;;;;;5072622;28;20244;-75
2022/03/23 06:47:33;;;;;;;35.30;24.70;;;;;;;;;;5073051;28;20283;-74
2022/03/23 06:50:02;;;;;;;33.67;24.70;;;;;;;;;;5086116;28;20219;-74
2022/03/23 06:52:32;;;;;;;39.10;26.87;;;;;;;;;;5081483;28;20646;-75
2022/03/23 06:55:00;;;;;;;34.67;26.63;;;;;;;;;;5072230;28;20265;-74
2022/03/23 06:57:29;;;;;;;42.07;27.47;;;;;;;;;;5085635;28;20229;-74
2022/03/23 06:59:58;;;;;;;38.27;26.90;;;;;;;;;;5089804;28;20203;-74
2022/03/23 07:02:27;;;;;;;38.83;25.43;;;;;;;;;;5073821;28;20237;-74
2022/03/23 07:04:55;;;;;;;32.10;24.50;;;;;;;;;;5079668;28;20201;-74
2022/03/23 07:07:24;;;;;;;29.67;23.20;;;;;;;;;;5077650;28;20228;-74
2022/03/23 07:09:51;;;;;;;31.17;22.97;;;;;;;;;;5074832;28;20226;-75
2022/03/23 07:12:21;;;;;;;27.53;21.70;;;;;;;;;;5092919;28;20257;-74
2022/03/23 07:14:49;;;;;;;26.50;21.10;;;;;;;;;;5092966;28;20202;-75
2022/03/23 07:17:19;;;;;;;26.57;21.57;;;;;;;;;;5092727;28;20226;-75
2022/03/23 07:19:47;;;;;;;26.33;21.10;;;;;;;;;;5072246;28;20205;-75
2022/03/23 07:22:16;;;;;;;26.13;21.17;;;;;;;;;;5072837;28;20214;-75
2022/03/23 07:24:45;;;;;;;25.77;21.30;;;;;;;;;;5072652;28;20202;-75
2022/03/23 07:27:14;;;;;;;24.77;20.33;;;;;;;;;;5072815;28;20253;-75
2022/03/23 07:29:48;;;;;;;23.57;19.73;;;;;;;;;;5075273;28;20236;-76
2022/03/23 07:32:16;;;;;;;26.57;21.30;;;;;;;;;;5084231;28;20670;-76
2022/03/23 07:34:46;;;;;;;23.93;20.23;;;;;;;;;;5072603;28;20203;-76
2022/03/23 07:37:15;;;;;;;23.93;20.00;;;;;;;;;;5072756;28;20230;-75
2022/03/23 07:39:43;;;;;;;25.57;20.53;;;;;;;;;;5072639;28;20575;-75
2022/03/23 07:42:12;;;;;;;25.60;19.80;;;;;;;;;;5072743;28;20211;-76
2022/03/23 07:44:40;;;;;;;23.60;20.03;;;;;;;;;;5073422;28;20248;-76
2022/03/23 07:47:10;;;;;;;26.07;20.13;;;;;;;;;;5074057;28;20217;-75
2022/03/23 07:49:39;;;;;;;25.73;20.20;;;;;;;;;;5072541;28;20689;-75
2022/03/23 07:52:09;;;;;;;24.93;20.30;;;;;;;;;;5075350;28;20601;-76
2022/03/23 07:54:38;;;;;;;24.90;20.23;;;;;;;;;;5089250;28;20201;-76
2022/03/23 07:57:07;;;;;;;26.10;20.03;;;;;;;;;;5091988;28;20693;-75
2022/03/23 07:59:35;;;;;;;25.37;21.10;;;;;;;;;;5088813;28;20218;-76
2022/03/23 08:02:04;;;;;;;28.43;21.33;;;;;;;;;;5072781;28;20205;-75
2022/03/23 08:04:33;;;;;;;27.00;21.37;;;;;;;;;;5072393;28;20206;-76
2022/03/23 08:07:02;;;;;;;26.63;20.63;;;;;;;;;;5074944;28;20280;-75
2022/03/23 08:09:32;;;;;;;26.53;20.80;;;;;;;;;;5096147;28;20305;-75
2022/03/23 08:12:01;;;;;;;28.37;20.77;;;;;;;;;;5086059;28;20286;-76
2022/03/23 08:14:29;;;;;;;29.57;20.30;;;;;;;;;;5076954;28;20272;-75
2022/03/23 08:16:58;;;;;;;28.20;21.80;;;;;;;;;;5085281;28;20221;-75
2022/03/23 08:19:26;;;;;;;28.37;21.47;;;;;;;;;;5095461;28;20266;-75
2022/03/23 08:21:55;;;;;;;24.20;20.33;;;;;;;;;;5087943;28;20729;-75
2022/03/23 08:24:24;;;;;;;30.73;22.20;;;;;;;;;;5075512;28;20203;-75
2022/03/23 08:26:54;;;;;;;30.63;23.37;;;;;;;;;;5091522;28;20224;-75
2022/03/23 08:29:23;;;;;;;29.20;22.10;;;;;;;;;;5095052;28;20218;-75
2022/03/23 08:31:52;;;;;;;27.33;23.40;;;;;;;;;;5076237;28;20701;-75
2022/03/23 08:34:20;;;;;;;27.63;22.50;;;;;;;;;;5075461;28;20202;-75
2022/03/23 08:36:49;;;;;;;27.47;23.10;;;;;;;;;;5082639;28;20225;-76
2022/03/23 08:39:17;;;;;;;30.50;23.10;;;;;;;;;;5075435;28;20198;-75
2022/03/23 08:41:46;;;;;;;26.03;22.83;;;;;;;;;;5078569;28;20203;-75
2022/03/23 08:44:16;;;;;;;27.13;22.80;;;;;;;;;;5095441;28;20245;-76
2022/03/23 08:46:45;;;;;;;28.43;22.83;;;;;;;;;;5075257;28;20236;-75
2022/03/23 08:49:13;;;;;;;26.33;21.77;;;;;;;;;;5075232;28;20208;-75
2022/03/23 08:51:42;;;;;;;28.40;22.40;;;;;;;;;;5075130;28;20715;-75
2022/03/23 08:54:13;;;;;;;25.50;21.53;;;;;;;;;;5074535;28;20206;-75
2022/03/23 08:56:42;;;;;;;28.20;23.23;;;;;;;;;;5074914;28;20222;-75
2022/03/23 08:59:11;;;;;;;26.47;21.57;;;;;;;;;;5075360;28;20260;-75
2022/03/23 09:01:40;;;;;;;23.40;20.80;;;;;;;;;;5075064;28;20202;-75
2022/03/23 09:04:10;;;;;;;22.97;20.47;;;;;;;;;;5074384;28;20915;-75
2022/03/23 09:06:39;;;;;;;24.77;20.83;;;;;;;;;;5074982;28;20701;-75
2022/03/23 09:09:07;;;;;;;23.57;20.93;;;;;;;;;;5074666;28;20202;-75
2022/03/23 09:11:35;;;;;;;23.67;21.17;;;;;;;;;;5074946;28;20267;-75
2022/03/23 09:14:04;;;;;;;22.87;20.27;;;;;;;;;;5074682;28;20263;-75
2022/03/23 09:16:32;;;;;;;23.53;20.57;;;;;;;;;;5074248;28;20222;-75
2022/03/23 09:19:02;;;;;;;22.20;19.90;;;;;;;;;;5074892;28;20206;-75
2022/03/23 09:21:30;;;;;;;22.60;19.40;;;;;;;;;;5074746;28;20190;-74
2022/03/23 09:23:59;;;;;;;20.63;18.37;;;;;;;;;;5074472;28;20757;-75
2022/03/23 09:26:28;;;;;;;22.23;19.90;;;;;;;;;;5074782;28;20223;-75
2022/03/23 09:28:58;;;;;;;22.50;19.03;;;;;;;;;;5079214;28;20213;-75
2022/03/23 09:31:27;;;;;;;23.97;20.00;;;;;;;;;;5078471;28;20229;-75
2022/03/23 09:33:55;;;;;;;25.00;19.53;;;;;;;;;;5074661;28;20200;-75
2022/03/23 09:39:07;;;;;;;24.87;20.00;;;;;;;;;;5073456;28;20199;-75
2022/03/23 09:41:36;;;;;;;23.03;19.33;;;;;;;;;;5074195;28;20194;-74
2022/03/23 09:44:05;;;;;;;21.20;19.00;;;;;;;;;;5074130;28;20232;-75
2022/03/23 09:46:33;;;;;;;21.90;19.03;;;;;;;;;;5073745;28;20254;-75
2022/03/23 09:49:02;;;;;;;22.33;19.93;;;;;;;;;;5074022;28;20273;-75
2022/03/23 09:51:33;;;;;;;23.57;19.47;;;;;;;;;;5074101;28;20219;-75
2022/03/23 09:54:02;;;;;;;22.97;18.77;;;;;;;;;;5073805;28;20221;-75
2022/03/23 09:56:30;;;;;;;22.23;19.23;;;;;;;;;;5074059;28;20268;-76
2022/03/23 09:59:00;;;;;;;23.00;18.60;;;;;;;;;;5073191;28;20206;-75
2022/03/23 10:01:58;;;;;;;20.63;18.60;;;;;;;;;;5073437;28;20206;-75
2022/03/23 10:04:54;;;;;;;21.20;18.57;;;;;;;;;;5073056;28;20650;-75
2022/03/23 10:07:27;;;;;;;20.83;18.20;;;;;;;;;;5073652;28;20222;-75
2022/03/23 10:10:17;;;;;;;22.50;18.83;;;;;;;;;;5073918;28;20280;-76
2022/03/23 10:13:05;;;;;;;20.95;18.70;;;;;;;;;;5074168;28;20187;-76
2022/03/23 10:15:51;;;;;;;21.67;18.92;;;;;;;;;;5073960;28;20202;-75
2022/03/23 10:18:38;;;;;;;25.50;19.52;;;;;;;;;;5073583;28;20223;-75
2022/03/23 10:21:07;;;;;;;21.95;19.35;;;;;;;;;;5076062;28;20576;-76
2022/03/23 10:23:37;;;;;;;21.23;18.88;;;;;;;;;;5093581;28;20209;-76
2022/03/23 10:26:12;;;;;;;21.38;19.05;;;;;;;;;;5092907;28;20591;-75
2022/03/23 10:28:40;;;;;;;26.98;18.15;;;;;;;;;;5082416;28;20205;-76
2022/03/23 10:31:16;;;;;;;25.20;19.40;;;;;;;;;;5087245;28;20222;-75
2022/03/23 10:33:45;;;;;;;21.45;18.70;;;;;;;;;;5087687;28;20281;-75
2022/03/23 10:36:13;;;;;;;21.42;19.20;;;;;;;;;;5073553;28;20619;-75
2022/03/23 10:38:43;;;;;;;21.75;19.30;;;;;;;;;;5082575;28;20193;-75
2022/03/23 10:41:12;;;;;;;22.02;18.73;;;;;;;;;;5093450;28;20243;-76
2022/03/23 10:43:42;;;;;;;20.75;18.55;;;;;;;;;;5091802;28;20197;-76
2022/03/23 10:46:11;;;;;;;20.73;18.48;;;;;;;;;;5093513;28;20205;-76
2022/03/23 10:48:50;;;;;;;20.25;18.08;;;;;;;;;;5088447;28;20195;-76
2022/03/23 10:51:26;;;;;;;21.30;18.02;;;;;;;;;;5073151;28;20669;-75
2022/03/23 10:53:56;;;;;;;19.35;17.35;;;;;;;;;;5074007;28;20540;-74
2022/03/23 10:56:31;;;;;;;20.40;18.17;;;;;;;;;;5072864;28;20226;-75
2022/03/23 10:59:21;;;;;;;20.52;18.27;;;;;;;;;;5090425;28;20223;-75
2022/03/23 11:02:03;;;;;;;19.42;17.42;;;;;;;;;;5093041;28;20267;-75
2022/03/23 11:04:32;;;;;;;19.17;16.63;;;;;;;;;;5072862;28;20209;-75
2022/03/23 11:07:01;;;;;;;17.98;15.48;;;;;;;;;;5080409;28;20626;-75
2022/03/23 11:18:06;;;;;;;14.88;13.43;;;;;;;;;;5078177;28;20222;-75
2022/03/23 11:20:40;;;;;;;14.85;13.43;;;;;;;;;;5073196;28;20191;-75
2022/03/23 11:23:17;;;;;;;16.15;14.75;;;;;;;;;;5087094;28;20200;-75
2022/03/23 11:25:48;;;;;;;15.25;13.85;;;;;;;;;;5093221;28;20592;-74
2022/03/23 11:28:17;;;;;;;14.75;13.23;;;;;;;;;;5071872;23;20222;-74
2022/03/23 11:30:46;;;;;;;14.90;13.50;;;;;;;;;;5032769;28;20671;-75
2022/03/23 11:33:16;;;;;;;15.73;14.23;;;;;;;;;;5033080;28;20204;-75
2022/03/23 11:35:49;;;;;;;15.27;13.82;;;;;;;;;;5052575;28;20229;-74
2022/03/23 11:38:18;;;;;;;15.43;13.85;;;;;;;;;;5043276;28;20234;-75
2022/03/23 11:40:49;;;;;;;15.90;14.40;;;;;;;;;;5054903;28;20199;-74
2022/03/23 11:43:19;;;;;;;15.90;14.40;;;;;;;;;;5047595;28;20290;-74
2022/03/23 11:46:08;;;;;;;16.60;15.05;;;;;;;;;;5056001;28;20203;-74
2022/03/23 11:48:56;;;;;;;16.27;14.63;;;;;;;;;;5036418;28;20663;-74
2022/03/23 11:51:29;;;;;;;17.17;15.50;;;;;;;;;;5036622;28;20218;-75
2022/03/23 11:54:03;;;;;;;16.27;14.57;;;;;;;;;;5036440;28;20204;-74
2022/03/23 11:56:37;;;;;;;16.25;14.65;;;;;;;;;;5036451;28;20636;-74
2022/03/23 11:59:23;;;;;;;15.73;14.23;;;;;;;;;;5042451;28;20202;-74
2022/03/23 12:01:51;;;;;;;14.75;13.45;;;;;;;;;;5036837;28;20207;-74
2022/03/23 12:04:21;;;;;;;16.45;14.55;;;;;;;;;;5035909;28;20258;-74
2022/03/23 12:06:57;;;;;;;15.35;13.95;;;;;;;;;;5054471;28;20219;-75
2022/03/23 12:09:32;;;;;;;14.82;13.52;;;;;;;;;;5056860;28;20191;-74
2022/03/23 12:12:02;;;;;;;14.98;13.38;;;;;;;;;;5016231;28;20228;-74
2022/03/23 12:14:32;;;;;;;15.70;14.05;;;;;;;;;;5016065;28;20240;-74
2022/03/23 12:17:19;;;;;;;15.13;13.75;;;;;;;;;;5054334;28;20219;-74
2022/03/23 12:19:58;;;;;;;14.65;13.23;;;;;;;;;;5054801;28;20298;-74
2022/03/23 12:22:57;;;;;;;14.60;13.30;;;;;;;;;;5036177;28;20184;-74
2022/03/23 12:25:27;;;;;;;14.93;13.43;;;;;;;;;;5040059;28;20187;-74
2022/03/23 12:28:06;;;;;;;15.90;14.23;;;;;;;;;;5055510;28;20234;-74
2022/03/23 12:30:40;;;;;;;14.27;12.98;;;;;;;;;;5052062;28;20596;-74
2022/03/23 12:33:10;;;;;;;16.17;14.60;;;;;;;;;;5055390;28;20621;-74
2022/03/23 12:35:39;;;;;;;14.98;13.38;;;;;;;;;;5045981;28;20196;-74
2022/03/23 12:38:18;;;;;;;15.07;13.57;;;;;;;;;;5044622;28;20849;-74
2022/03/23 12:40:47;;;;;;;14.77;13.38;;;;;;;;;;5045085;28;20257;-74
2022/03/23 12:43:36;;;;;;;14.98;13.57;;;;;;;;;;5044573;28;20200;-74
2022/03/23 12:46:05;;;;;;;16.00;14.50;;;;;;;;;;5015483;28;20204;-74
2022/03/23 12:59:53;;;;;;;15.85;14.27;;;;;;;;;;5052068;28;20218;-74
2022/03/23 13:02:31;;;;;;;16.00;14.38;;;;;;;;;;5035571;28;20249;-74
2022/03/23 13:05:00;;;;;;;16.35;14.68;;;;;;;;;;5034891;28;20204;-74
2022/03/23 13:07:41;;;;;;;15.95;14.38;;;;;;;;;;5034785;28;20709;-74
2022/03/23 13:10:11;;;;;;;15.77;14.23;;;;;;;;;;5015139;28;20200;-74
2022/03/23 13:12:40;;;;;;;16.45;14.45;;;;;;;;;;5015049;28;20691;-74
2022/03/23 13:15:14;;;;;;;19.08;15.18;;;;;;;;;;5015025;28;20201;-74
2022/03/23 13:17:43;;;;;;;15.93;14.25;;;;;;;;;;5015300;28;20224;-74
2022/03/23 13:20:12;;;;;;;15.27;13.88;;;;;;;;;;5022016;28;20646;-74
2022/03/23 13:22:41;;;;;;;14.82;13.32;;;;;;;;;;5037525;28;20207;-74
2022/03/23 13:25:11;;;;;;;14.27;12.88;;;;;;;;;;5014665;28;20267;-74
2022/03/23 13:27:39;;;;;;;14.70;13.30;;;;;;;;;;5028481;28;20219;-75
2022/03/23 13:30:10;;;;;;;15.10;13.40;;;;;;;;;;5037867;28;20204;-74
2022/03/23 13:32:42;;;;;;;14.95;13.38;;;;;;;;;;5046348;28;20681;-74
2022/03/23 13:35:15;;;;;;;14.80;13.27;;;;;;;;;;5034377;28;20212;-75
2022/03/23 13:37:56;;;;;;;13.48;12.07;;;;;;;;;;5034329;28;20227;-75
2022/03/23 13:40:28;;;;;;;13.20;11.77;;;;;;;;;;5034460;28;20670;-75
2022/03/23 13:45:48;;;;;;;12.98;11.57;;;;;;;;;;5029206;28;20204;-74
2022/03/23 13:48:18;;;;;;;13.43;10.82;;;;;;;;;;5033698;28;20726;-75
2022/03/23 13:50:48;;;;;;;13.93;11.88;;;;;;;;;;5034153;28;20212;-75
2022/03/23 13:53:19;;;;;;;13.52;11.80;;;;;;;;;;5036917;28;20211;-74
2022/03/23 13:55:48;;;;;;;13.52;12.13;;;;;;;;;;5047078;28;20214;-74
2022/03/23 13:58:20;;;;;;;15.30;12.15;;;;;;;;;;5044632;28;20220;-75
2022/03/23 14:00:50;;;;;;;13.35;11.95;;;;;;;;;;5033964;28;20211;-75
2022/03/23 14:03:28;;;;;;;14.05;12.48;;;;;;;;;;5033298;28;20630;-75
2022/03/23 14:06:04;;;;;;;13.63;12.32;;;;;;;;;;5042122;28;20239;-74
2022/03/23 14:08:35;;;;;;;16.00;12.13;;;;;;;;;;5034678;28;20207;-76
2022/03/23 14:11:04;;;;;;;15.38;13.82;;;;;;;;;;5036579;28;20203;-75
2022/03/23 14:13:38;;;;;;;15.32;13.75;;;;;;;;;;5032163;28;20232;-75
2022/03/23 14:16:07;;;;;;;14.07;12.65;;;;;;;;;;5034939;28;20195;-74
2022/03/23 14:18:37;;;;;;;15.15;13.65;;;;;;;;;;5033009;28;20231;-74
2022/03/23 14:21:06;;;;;;;14.48;13.02;;;;;;;;;;5033355;28;20223;-75
2022/03/23 14:23:35;;;;;;;14.48;12.95;;;;;;;;;;5031652;28;20204;-75
2022/03/23 14:26:18;;;;;;;15.05;13.38;;;;;;;;;;5036527;28;20879;-75
2022/03/23 14:28:47;;;;;;;13.98;12.45;;;;;;;;;;5038312;28;20263;-74
2022/03/23 14:31:21;;;;;;;14.65;13.15;;;;;;;;;;5031814;28;20206;-74
2022/03/23 14:33:54;;;;;;;15.43;13.10;;;;;;;;;;5032389;28;20227;-74
2022/03/23 14:36:24;;;;;;;14.55;13.05;;;;;;;;;;5037669;28;20829;-74
2022/03/23 14:38:52;;;;;;;14.93;13.35;;;;;;;;;;5031247;28;20207;-74
2022/03/23 14:41:21;;;;;;;15.50;13.88;;;;;;;;;;5033121;28;20572;-74
2022/03/23 14:43:50;;;;;;;14.65;13.13;;;;;;;;;;5046442;28;20261;-74
2022/03/23 14:46:23;;;;;;;14.55;12.65;;;;;;;;;;5041954;28;20261;-75
2022/03/23 14:49:16;;;;;;;14.50;13.00;;;;;;;;;;5031681;28;20277;-74
2022/03/23 14:51:46;;;;;;;15.07;13.63;;;;;;;;;;5027467;28;20259;-74
2022/03/23 14:54:16;;;;;;;14.73;13.23;;;;;;;;;;5021114;28;20671;-74
2022/03/23 14:56:48;;;;;;;14.10;12.70;;;;;;;;;;5040230;28;20226;-74
2022/03/23 14:59:26;;;;;;;14.15;12.60;;;;;;;;;;5024850;28;20229;-74
2022/03/23 15:01:59;;;;;;;14.93;12.65;;;;;;;;;;5027969;28;20208;-74
2022/03/23 15:04:29;;;;;;;16.50;12.88;;;;;;;;;;5028308;28;20726;-74
2022/03/23 15:15:20;;;;;;;14.50;13.10;;;;;;;;;;5029903;28;20214;-74
2022/03/23 15:17:50;;;;;;;14.82;13.27;;;;;;;;;;5033613;28;20247;-73